Time;durP1;ratioP1;P1;durP2;ratioP2;P2;SDS_P1;SDS_P2;PMS_P1;PMS_P2;Temp;Humidity;BMP_temperature;BMP_pressure;BME280_temperature;BME280_humidity;BME280_pressure;Samples;Min_cycle;Max_cycle;Signal;HPM_P1;HPM_P2
2023/05/09 00:01:26;;;;;;;20.95;12.43;;;15.60;99.90;;;;;;6209970;28;20057;-76
2023/05/09 00:04:29;;;;;;;13.85;12.35;;;15.60;99.90;;;;;;6214750;28;20397;-75
2023/05/09 00:07:31;;;;;;;13.18;11.88;;;15.60;99.90;;;;;;6211596;28;20475;-75
2023/05/09 00:10:32;;;;;;;14.82;13.32;;;15.60;99.90;;;;;;6208759;28;20193;-75
2023/05/09 00:13:36;;;;;;;17.73;14.18;;;15.70;99.90;;;;;;6212218;28;20046;-75
2023/05/09 00:16:38;;;;;;;14.30;11.93;;;15.70;99.90;;;;;;6214028;28;20046;-75
2023/05/09 00:19:40;;;;;;;13.50;12.07;;;15.70;99.90;;;;;;6210893;28;20141;-76
2023/05/09 00:22:42;;;;;;;12.65;11.45;;;15.70;99.90;;;;;;6213308;28;20058;-75
2023/05/09 00:25:43;;;;;;;14.57;13.07;;;15.80;99.90;;;;;;6215508;28;20050;-75
2023/05/09 00:28:46;;;;;;;18.70;14.75;;;15.80;99.90;;;;;;6211748;28;20046;-75
2023/05/09 00:31:48;;;;;;;19.77;14.20;;;15.80;99.90;;;;;;6208251;28;20042;-75
2023/05/09 00:34:50;;;;;;;18.75;16.75;;;15.90;99.90;;;;;;6211949;28;20042;-75
2023/05/09 00:37:52;;;;;;;22.45;19.08;;;15.90;99.90;;;;;;6209562;28;20531;-75
2023/05/09 00:40:54;;;;;;;25.65;22.45;;;15.90;99.90;;;;;;6210838;28;20833;-75
2023/05/09 00:43:57;;;;;;;22.48;18.83;;;15.90;99.90;;;;;;6210427;28;20050;-75
2023/05/09 00:46:58;;;;;;;22.67;20.27;;;15.90;99.90;;;;;;6208555;28;20042;-75
2023/05/09 00:50:00;;;;;;;23.85;21.08;;;15.90;99.90;;;;;;6207382;28;20054;-75
2023/05/09 00:53:03;;;;;;;25.63;21.83;;;15.90;99.90;;;;;;6213207;28;20050;-75
2023/05/09 00:56:06;;;;;;;23.65;21.25;;;15.90;99.90;;;;;;6208943;28;20527;-75
2023/05/09 00:59:09;;;;;;;23.92;20.13;;;15.80;99.90;;;;;;6210119;28;20046;-75
2023/05/09 01:02:11;;;;;;;25.10;20.23;;;15.80;99.90;;;;;;6207384;28;20049;-75
2023/05/09 01:05:13;;;;;;;25.00;20.48;;;15.80;99.90;;;;;;6210051;28;20053;-74
2023/05/09 01:08:28;;;;;;;25.73;19.83;;;15.80;99.90;;;;;;6207385;28;20558;-75
2023/05/09 01:11:34;;;;;;;22.50;18.73;;;15.80;99.90;;;;;;6212082;28;20405;-75
2023/05/09 01:14:46;;;;;;;34.38;22.75;;;15.80;99.90;;;;;;6207992;28;20073;-74
2023/05/09 01:17:53;;;;;;;26.60;22.23;;;15.80;99.90;;;;;;6210914;28;20484;-75
2023/05/09 01:21:02;;;;;;;30.15;24.08;;;15.80;99.90;;;;;;6203631;28;20046;-75
2023/05/09 01:24:21;;;;;;;25.77;22.60;;;15.80;99.90;;;;;;6208025;28;20111;-74
2023/05/09 01:27:43;;;;;;;29.02;25.02;;;15.80;99.90;;;;;;6204217;28;20056;-74
2023/05/09 01:30:47;;;;;;;28.45;22.55;;;15.80;99.90;;;;;;6207879;28;20422;-76
2023/05/09 01:33:54;;;;;;;24.65;21.98;;;15.80;99.90;;;;;;6204029;28;20050;-76
2023/05/09 01:36:59;;;;;;;29.08;22.58;;;15.80;99.90;;;;;;6210054;28;20053;-76
2023/05/09 01:40:06;;;;;;;29.83;25.38;;;15.80;99.90;;;;;;6204222;28;20046;-75
2023/05/09 01:43:10;;;;;;;28.30;25.20;;;15.80;99.90;;;;;;6210637;28;20042;-76
2023/05/09 01:46:16;;;;;;;32.83;24.92;;;15.80;99.90;;;;;;6205438;28;20045;-76
2023/05/09 01:49:20;;;;;;;24.40;21.58;;;15.70;99.90;;;;;;6211200;28;20057;-77
2023/05/09 01:52:23;;;;;;;29.30;21.83;;;15.70;99.90;;;;;;6208418;28;20058;-77
2023/05/09 01:55:27;;;;;;;36.53;25.38;;;15.70;99.90;;;;;;6209754;28;20056;-78
2023/05/09 01:58:31;;;;;;;30.38;25.83;;;15.70;99.90;;;;;;6211560;28;20034;-79
2023/05/09 02:01:34;;;;;;;29.30;24.00;;;15.70;99.90;;;;;;6212384;28;20060;-79
2023/05/09 02:04:37;;;;;;;25.75;21.00;;;15.70;99.90;;;;;;6210500;28;20516;-79
2023/05/09 02:07:40;;;;;;;30.02;23.55;;;15.70;99.90;;;;;;6207390;28;20053;-79
2023/05/09 02:10:44;;;;;;;29.52;23.02;;;15.80;99.90;;;;;;6212191;28;20078;-78
2023/05/09 02:13:46;;;;;;;27.33;20.40;;;15.80;99.90;;;;;;6210297;28;20492;-78
2023/05/09 02:16:50;;;;;;;28.48;20.52;;;15.80;99.90;;;;;;6215907;28;20501;-78
2023/05/09 02:19:51;;;;;;;21.65;19.17;;;15.80;99.90;;;;;;6209001;28;20121;-79
2023/05/09 02:22:53;;;;;;;19.38;17.30;;;15.70;99.90;;;;;;6210400;28;20064;-78
2023/05/09 02:25:55;;;;;;;24.20;19.48;;;15.70;99.90;;;;;;6212626;28;20050;-78
2023/05/09 02:28:58;;;;;;;23.52;20.30;;;15.70;99.90;;;;;;6212422;28;20053;-77
2023/05/09 02:32:04;;;;;;;22.05;17.85;;;15.60;99.90;;;;;;6211043;28;20042;-78
2023/05/09 02:35:08;;;;;;;20.95;18.00;;;15.60;99.90;;;;;;6210491;28;20056;-78
2023/05/09 02:38:10;;;;;;;24.95;18.85;;;15.60;99.90;;;;;;6214273;28;20416;-79
2023/05/09 02:41:13;;;;;;;26.90;19.02;;;15.60;99.90;;;;;;6214727;28;20061;-79
2023/05/09 02:44:14;;;;;;;21.73;17.05;;;15.50;99.90;;;;;;6218956;28;20104;-77
2023/05/09 02:47:17;;;;;;;17.38;15.20;;;15.40;99.90;;;;;;6212428;28;20053;-79
2023/05/09 02:50:19;;;;;;;19.33;16.48;;;15.40;99.90;;;;;;6212817;28;20054;-77
2023/05/09 02:53:21;;;;;;;19.80;17.67;;;15.40;99.90;;;;;;6209484;28;20042;-78
2023/05/09 02:56:22;;;;;;;21.65;17.42;;;15.40;99.90;;;;;;6211941;28;20424;-77
2023/05/09 02:59:25;;;;;;;22.17;17.02;;;15.50;99.90;;;;;;6212993;28;20046;-78
2023/05/09 03:02:28;;;;;;;18.88;16.73;;;15.50;99.90;;;;;;6215648;28;20088;-79
2023/05/09 03:05:30;;;;;;;21.63;17.42;;;15.60;99.90;;;;;;6211658;28;20050;-78
2023/05/09 03:08:32;;;;;;;18.98;17.00;;;15.60;99.90;;;;;;6209083;28;20046;-78
2023/05/09 03:11:35;;;;;;;19.27;16.40;;;15.60;99.90;;;;;;6212705;28;20062;-77
2023/05/09 03:14:37;;;;;;;26.27;21.55;;;15.60;99.90;;;;;;6216047;28;20828;-78
2023/05/09 03:17:40;;;;;;;25.25;18.63;;;15.60;99.90;;;;;;6217109;28;20046;-78
2023/05/09 03:20:41;;;;;;;25.20;18.52;;;15.70;99.90;;;;;;6218658;28;20404;-79
2023/05/09 03:23:43;;;;;;;31.73;19.33;;;15.70;99.90;;;;;;6217112;28;20053;-78
2023/05/09 03:26:45;;;;;;;25.55;19.73;;;15.60;99.90;;;;;;6221365;28;20045;-77
2023/05/09 03:29:46;;;;;;;25.73;17.77;;;15.70;99.90;;;;;;6218077;28;20049;-78
2023/05/09 03:32:49;;;;;;;19.50;16.73;;;15.70;99.90;;;;;;6209562;28;20150;-74
2023/05/09 03:35:51;;;;;;;18.65;16.15;;;15.70;99.90;;;;;;6209558;28;20049;-76
2023/05/09 03:38:53;;;;;;;18.65;16.75;;;15.70;99.90;;;;;;6206843;28;20046;-75
2023/05/09 03:41:55;;;;;;;15.82;14.20;;;15.70;99.90;;;;;;6210476;28;20050;-77
2023/05/09 03:44:57;;;;;;;19.67;16.27;;;15.70;99.90;;;;;;6211302;28;20050;-77
2023/05/09 03:48:01;;;;;;;18.35;15.88;;;15.70;99.90;;;;;;6204919;28;20054;-77
2023/05/09 03:51:03;;;;;;;16.33;14.63;;;15.70;99.90;;;;;;6207737;28;20050;-77
2023/05/09 03:54:05;;;;;;;18.00;16.10;;;15.60;99.90;;;;;;6207758;28;20053;-77
2023/05/09 03:57:07;;;;;;;21.05;17.58;;;15.60;99.90;;;;;;6211717;28;20504;-77
2023/05/09 04:00:09;;;;;;;25.65;18.27;;;15.60;99.90;;;;;;6212082;28;20049;-77
2023/05/09 04:03:12;;;;;;;21.23;18.90;;;15.70;99.90;;;;;;6210548;28;20057;-77
2023/05/09 04:06:15;;;;;;;21.40;16.38;;;15.60;99.90;;;;;;6210421;28;20054;-76
2023/05/09 04:09:16;;;;;;;18.95;15.82;;;15.50;99.90;;;;;;6211138;28;20374;-76
2023/05/09 04:12:18;;;;;;;26.42;19.60;;;15.60;99.90;;;;;;6213039;28;20057;-76
2023/05/09 04:15:20;;;;;;;22.20;17.48;;;15.60;99.90;;;;;;6210791;28;23364;-76
2023/05/09 04:18:23;;;;;;;25.33;21.73;;;15.60;99.90;;;;;;6217319;28;20509;-77
2023/05/09 04:21:24;;;;;;;41.58;29.20;;;15.60;99.90;;;;;;6208937;28;20050;-76
2023/05/09 04:24:26;;;;;;;29.33;26.20;;;15.60;99.90;;;;;;6209001;28;20050;-75
2023/05/09 04:27:28;;;;;;;36.55;26.80;;;15.60;99.90;;;;;;6209364;28;20427;-77
2023/05/09 04:30:30;;;;;;;42.33;26.30;;;15.60;99.90;;;;;;6208424;28;20049;-77
2023/05/09 04:33:33;;;;;;;37.20;28.05;;;15.70;99.90;;;;;;6207585;28;20412;-75
2023/05/09 04:36:35;;;;;;;43.67;32.83;;;15.70;99.90;;;;;;6214548;28;20054;-77
2023/05/09 04:39:36;;;;;;;35.95;27.60;;;15.60;99.90;;;;;;6207691;28;20053;-77
2023/05/09 04:42:39;;;;;;;37.22;28.30;;;15.70;99.90;;;;;;6209671;28;20058;-77
2023/05/09 04:45:41;;;;;;;41.53;28.88;;;15.60;99.90;;;;;;6210325;28;20041;-76
2023/05/09 04:48:44;;;;;;;35.38;26.88;;;15.70;99.90;;;;;;6212556;28;20053;-76
2023/05/09 04:51:45;;;;;;;35.92;26.10;;;15.70;99.90;;;;;;6213363;28;20050;-77
2023/05/09 04:54:47;;;;;;;30.70;23.08;;;15.70;99.90;;;;;;6212823;28;20065;-76
2023/05/09 04:57:48;;;;;;;27.85;24.05;;;15.70;99.90;;;;;;6210400;28;20897;-76
2023/05/09 05:00:50;;;;;;;29.23;19.58;;;15.70;99.90;;;;;;6210107;28;20061;-77
2023/05/09 05:03:53;;;;;;;23.05;19.85;;;15.70;99.90;;;;;;6209798;28;20054;-77
2023/05/09 05:06:55;;;;;;;25.15;20.15;;;15.70;99.90;;;;;;6207535;28;20050;-77
2023/05/09 05:09:56;;;;;;;21.27;17.70;;;15.70;99.90;;;;;;6204666;28;20045;-77
2023/05/09 05:12:58;;;;;;;23.05;17.40;;;15.70;99.90;;;;;;6206866;28;20053;-76
2023/05/09 05:16:00;;;;;;;20.58;16.77;;;15.70;99.90;;;;;;6237165;28;20042;-78
2023/05/09 05:19:03;;;;;;;18.80;15.75;;;15.70;99.90;;;;;;6226740;28;20042;-78
2023/05/09 05:22:04;;;;;;;21.63;16.42;;;15.80;99.90;;;;;;6231867;28;20050;-78
2023/05/09 05:25:07;;;;;;;16.45;14.70;;;15.80;99.90;;;;;;6231546;28;20062;-78
2023/05/09 05:28:09;;;;;;;18.33;15.98;;;15.80;99.90;;;;;;6221452;28;20042;-79
2023/05/09 05:31:11;;;;;;;20.08;14.82;;;15.90;99.90;;;;;;6214103;28;20061;-79
2023/05/09 05:34:15;;;;;;;20.75;15.35;;;16.00;99.90;;;;;;6233684;28;20041;-78
2023/05/09 05:37:17;;;;;;;18.58;16.45;;;16.10;99.90;;;;;;6231574;28;20483;-78
2023/05/09 05:40:19;;;;;;;15.77;14.18;;;16.20;99.90;;;;;;6237441;28;20068;-78
2023/05/09 05:43:20;;;;;;;18.67;13.88;;;16.30;99.90;;;;;;6228951;28;20058;-78
2023/05/09 05:46:22;;;;;;;18.67;14.77;;;16.40;99.90;;;;;;6234096;28;20295;-79
2023/05/09 05:49:25;;;;;;;16.05;13.80;;;16.40;99.90;;;;;;6232945;28;20049;-78
2023/05/09 05:52:27;;;;;;;14.15;12.70;;;16.60;99.90;;;;;;6232100;28;20056;-78
2023/05/09 05:55:28;;;;;;;16.08;14.27;;;16.60;99.90;;;;;;6234683;28;20241;-79
2023/05/09 05:58:30;;;;;;;15.38;13.52;;;16.70;99.90;;;;;;6233323;28;20068;-78
2023/05/09 06:01:32;;;;;;;16.27;13.88;;;16.90;99.90;;;;;;6232888;28;20056;-78
2023/05/09 06:04:35;;;;;;;17.15;14.90;;;17.10;99.90;;;;;;6226688;28;20061;-78
2023/05/09 06:07:37;;;;;;;19.73;16.98;;;17.20;99.90;;;;;;6229153;28;20420;-78
2023/05/09 06:10:38;;;;;;;16.77;15.02;;;17.20;99.90;;;;;;6225990;28;20047;-79
2023/05/09 06:13:40;;;;;;;14.38;12.65;;;17.40;99.90;;;;;;6226739;28;20042;-79
2023/05/09 06:16:42;;;;;;;17.25;14.98;;;17.40;99.90;;;;;;6227757;28;20038;-78
2023/05/09 06:19:45;;;;;;;17.33;15.50;;;17.50;99.90;;;;;;6230346;28;20049;-79
2023/05/09 06:22:46;;;;;;;19.13;15.10;;;17.50;99.90;;;;;;6226322;28;20054;-78
2023/05/09 06:25:48;;;;;;;19.67;17.63;;;17.50;99.90;;;;;;6229496;28;20042;-78
2023/05/09 06:28:50;;;;;;;21.48;17.17;;;17.50;99.90;;;;;;6220669;28;20065;-80
2023/05/09 06:31:52;;;;;;;20.88;18.67;;;17.50;99.90;;;;;;6209725;28;20065;-79
2023/05/09 06:34:55;;;;;;;24.05;19.50;;;17.60;99.90;;;;;;6210960;28;20045;-79
2023/05/09 06:37:56;;;;;;;27.13;22.35;;;17.70;99.90;;;;;;6210658;28;20057;-80
2023/05/09 06:40:58;;;;;;;28.50;23.45;;;17.90;99.90;;;;;;6213834;28;20045;-79
2023/05/09 06:44:01;;;;;;;23.65;21.40;;;18.00;99.90;;;;;;6207175;28;20065;-79
2023/05/09 06:47:03;;;;;;;25.92;22.52;;;18.10;99.90;;;;;;6206147;28;20493;-79
2023/05/09 06:50:07;;;;;;;26.75;23.80;;;18.10;99.90;;;;;;6213867;28;20065;-79
2023/05/09 06:53:09;;;;;;;27.73;23.85;;;18.20;99.90;;;;;;6214435;28;20046;-80
2023/05/09 06:56:11;;;;;;;23.38;20.30;;;18.20;99.90;;;;;;6211476;28;20109;-80
2023/05/09 06:59:15;;;;;;;25.13;20.83;;;18.40;99.90;;;;;;6218606;28;20053;-76
2023/05/09 07:02:16;;;;;;;23.08;20.52;;;18.60;99.90;;;;;;6220020;28;20058;-75
2023/05/09 07:05:20;;;;;;;27.63;24.17;;;18.80;99.90;;;;;;6219325;28;20300;-77
2023/05/09 07:08:21;;;;;;;23.27;20.65;;;19.00;99.90;;;;;;6218281;28;20057;-77
2023/05/09 07:11:23;;;;;;;24.50;21.75;;;18.90;99.90;;;;;;6222752;28;20058;-77
2023/05/09 07:14:25;;;;;;;22.73;20.30;;;18.90;99.90;;;;;;6221926;28;20041;-77
2023/05/09 07:17:28;;;;;;;26.30;23.48;;;19.00;99.90;;;;;;6217051;28;20045;-77
2023/05/09 07:20:31;;;;;;;22.85;20.60;;;19.10;99.90;;;;;;6220109;28;20045;-77
2023/05/09 07:23:33;;;;;;;21.90;19.67;;;19.20;99.90;;;;;;6219561;28;20069;-76
2023/05/09 07:26:35;;;;;;;19.88;18.05;;;19.40;99.90;;;;;;6210128;28;20046;-76
2023/05/09 07:29:37;;;;;;;19.75;17.77;;;19.60;99.90;;;;;;6208837;28;20413;-77
2023/05/09 07:32:39;;;;;;;18.05;16.25;;;19.80;99.90;;;;;;6209663;28;20042;-77
2023/05/09 07:35:42;;;;;;;21.45;19.42;;;19.70;99.90;;;;;;6211336;28;20195;-76
2023/05/09 07:38:46;;;;;;;21.25;18.42;;;19.70;99.90;;;;;;6207225;28;20038;-78
2023/05/09 07:41:48;;;;;;;21.58;19.30;;;19.80;99.90;;;;;;6207335;28;20058;-77
2023/05/09 07:44:50;;;;;;;19.23;17.42;;;19.90;99.90;;;;;;6209023;28;20053;-77
2023/05/09 07:47:51;;;;;;;19.85;17.95;;;20.10;99.90;;;;;;6217577;28;20053;-76
2023/05/09 07:50:54;;;;;;;17.95;16.30;;;20.40;99.90;;;;;;6223873;28;20049;-78
2023/05/09 07:53:56;;;;;;;16.92;15.18;;;21.30;99.90;;;;;;6222930;28;20053;-79
2023/05/09 07:56:58;;;;;;;14.70;13.30;;;22.50;99.90;;;;;;6224711;28;20052;-78
2023/05/09 07:59:59;;;;;;;19.27;14.30;;;23.60;99.90;;;;;;6219578;28;20082;-77
2023/05/09 08:03:01;;;;;;;42.22;15.43;;;24.80;99.90;;;;;;6223932;28;20407;-80
2023/05/09 08:06:04;;;;;;;13.40;12.10;;;25.50;99.90;;;;;;6226010;28;20518;-75
2023/05/09 08:09:06;;;;;;;12.93;11.82;;;25.90;99.90;;;;;;6220625;28;20067;-77
2023/05/09 08:12:08;;;;;;;13.60;12.45;;;25.90;99.90;;;;;;6220398;28;20057;-78
2023/05/09 08:15:10;;;;;;;12.68;11.48;;;25.60;99.90;;;;;;6216258;28;20038;-77
2023/05/09 08:18:12;;;;;;;12.90;11.25;;;25.40;99.90;;;;;;6216914;28;20424;-76
2023/05/09 08:21:15;;;;;;;13.30;11.80;;;24.80;99.90;;;;;;6218763;28;20186;-77
2023/05/09 08:24:17;;;;;;;13.30;11.35;;;24.10;99.90;;;;;;6213020;28;20531;-79
2023/05/09 08:27:18;;;;;;;15.50;13.90;;;23.40;99.90;;;;;;6219523;28;20635;-76
2023/05/09 08:30:20;;;;;;;17.08;15.38;;;22.80;99.90;;;;;;6207597;28;20061;-78
2023/05/09 08:33:22;;;;;;;18.25;16.40;;;22.30;99.90;;;;;;6219752;28;20920;-77
2023/05/09 08:36:25;;;;;;;20.33;18.23;;;21.80;99.90;;;;;;6216495;28;20049;-77
2023/05/09 08:39:27;;;;;;;18.70;16.80;;;21.30;99.90;;;;;;6213584;28;20046;-76
2023/05/09 08:42:30;;;;;;;19.23;17.45;;;21.00;99.90;;;;;;6217254;28;20037;-77
2023/05/09 08:45:36;;;;;;;18.92;17.02;;;21.20;99.90;;;;;;6215127;28;20050;-77
2023/05/09 08:48:39;;;;;;;18.38;16.73;;;21.40;99.90;;;;;;6220936;28;20602;-77
2023/05/09 08:51:43;;;;;;;18.85;16.98;;;21.40;99.90;;;;;;6219590;28;20054;-77
2023/05/09 08:54:45;;;;;;;18.25;16.38;;;21.50;99.90;;;;;;6217138;28;20121;-77
2023/05/09 08:57:46;;;;;;;14.85;13.55;;;21.80;99.90;;;;;;6217275;28;20652;-77
2023/05/09 09:00:50;;;;;;;15.70;14.23;;;22.40;99.90;;;;;;6223415;28;20045;-78
2023/05/09 09:03:52;;;;;;;13.65;12.43;;;23.00;99.90;;;;;;6218091;28;20355;-76
2023/05/09 09:06:55;;;;;;;17.70;12.32;;;23.00;99.90;;;;;;6218269;28;20045;-77
2023/05/09 09:09:58;;;;;;;11.82;10.63;;;23.00;99.90;;;;;;6216233;28;20046;-79
2023/05/09 09:13:00;;;;;;;15.10;12.55;;;23.00;99.90;;;;;;6210402;28;20058;-77
2023/05/09 09:16:02;;;;;;;13.13;10.90;;;23.00;99.90;;;;;;6216364;28;20054;-77
2023/05/09 09:19:06;;;;;;;11.82;10.73;;;22.80;99.90;;;;;;6218831;28;20048;-78
2023/05/09 09:22:13;;;;;;;11.48;10.40;;;22.60;99.90;;;;;;6221464;28;20042;-79
2023/05/09 09:25:15;;;;;;;12.13;11.00;;;22.40;99.90;;;;;;6227629;28;20056;-78
2023/05/09 09:28:17;;;;;;;11.18;10.13;;;22.10;99.90;;;;;;6221617;28;20058;-78
2023/05/09 09:31:20;;;;;;;11.30;10.27;;;21.80;99.90;;;;;;6220253;28;20369;-79
2023/05/09 09:34:23;;;;;;;11.75;10.60;;;21.80;99.90;;;;;;6220713;28;20111;-81
2023/05/09 09:37:26;;;;;;;12.25;11.00;;;21.70;99.90;;;;;;6222666;28;20512;-81
2023/05/09 09:40:28;;;;;;;11.50;10.50;;;21.80;99.90;;;;;;6221050;28;20056;-79
2023/05/09 09:43:30;;;;;;;9.68;8.68;;;22.00;99.90;;;;;;6230071;28;20057;-78
2023/05/09 09:46:41;;;;;;;11.23;10.23;;;22.20;99.90;;;;;;6231247;28;20056;-79
2023/05/09 09:49:46;;;;;;;9.85;8.98;;;22.20;99.90;;;;;;6228521;28;20045;-78
2023/05/09 09:52:51;;;;;;;9.73;8.88;;;22.20;99.90;;;;;;6225579;28;20042;-79
2023/05/09 09:55:53;;;;;;;10.18;9.30;;;22.20;99.90;;;;;;6239341;28;20056;-80
2023/05/09 09:59:09;;;;;;;9.35;8.27;;;22.00;99.90;;;;;;6233584;28;20502;-81
2023/05/09 10:02:11;;;;;;;8.35;7.65;;;22.00;99.90;;;;;;6230846;28;20049;-78
2023/05/09 10:05:19;;;;;;;11.77;10.57;;;21.90;99.90;;;;;;6231378;28;20046;-79
2023/05/09 10:08:21;;;;;;;10.25;8.40;;;21.90;99.90;;;;;;6223575;28;20073;-79
2023/05/09 10:11:23;;;;;;;11.85;8.07;;;21.70;99.90;;;;;;6229321;28;20049;-79
2023/05/09 10:14:26;;;;;;;10.25;9.25;;;21.50;99.90;;;;;;6226018;28;20053;-79
2023/05/09 10:17:30;;;;;;;10.32;9.40;;;21.40;99.90;;;;;;6228578;28;20049;-80
2023/05/09 10:20:32;;;;;;;8.93;8.20;;;21.20;99.90;;;;;;6225922;28;20126;-78
2023/05/09 10:23:38;;;;;;;9.20;8.35;;;21.10;99.90;;;;;;6226543;28;20062;-78
2023/05/09 10:26:45;;;;;;;11.90;8.95;;;21.00;99.90;;;;;;6223787;28;20050;-78
2023/05/09 10:29:51;;;;;;;9.93;9.00;;;20.80;99.90;;;;;;6228621;28;20060;-78
2023/05/09 10:32:54;;;;;;;13.07;10.38;;;20.60;99.90;;;;;;6225302;28;20053;-79
2023/05/09 10:35:58;;;;;;;12.93;11.50;;;20.50;99.90;;;;;;6229439;28;20045;-79
2023/05/09 10:39:01;;;;;;;12.43;11.23;;;20.20;99.90;;;;;;6237751;28;20038;-79
2023/05/09 10:42:04;;;;;;;13.07;11.88;;;20.10;99.90;;;;;;6246447;28;20033;-77
2023/05/09 10:45:08;;;;;;;12.10;11.00;;;19.90;99.90;;;;;;6234177;28;20533;-79
2023/05/09 10:48:11;;;;;;;11.10;10.20;;;19.90;99.90;;;;;;6229457;28;20064;-78
2023/05/09 10:51:13;;;;;;;11.52;10.43;;;19.90;99.90;;;;;;6234821;28;20042;-79
2023/05/09 10:54:27;;;;;;;11.93;10.73;;;20.00;99.90;;;;;;6230537;28;20050;-77
2023/05/09 10:57:30;;;;;;;12.85;10.63;;;20.10;99.90;;;;;;6220524;28;20058;-78
2023/05/09 11:00:32;;;;;;;10.88;9.77;;;20.20;99.90;;;;;;6230257;28;20045;-80
2023/05/09 11:03:54;;;;;;;11.35;10.32;;;20.30;99.90;;;;;;6227228;28;20056;-78
2023/05/09 11:06:55;;;;;;;11.23;10.00;;;20.10;99.90;;;;;;6221615;28;20046;-78
2023/05/09 11:10:09;;;;;;;10.63;9.63;;;20.10;99.90;;;;;;6224803;28;20034;-78
2023/05/09 11:13:11;;;;;;;10.10;9.20;;;20.10;99.90;;;;;;6223613;28;20058;-80
2023/05/09 11:16:13;;;;;;;8.90;8.20;;;20.20;99.90;;;;;;6226009;28;20069;-78
2023/05/09 11:19:35;;;;;;;8.57;7.68;;;20.20;99.90;;;;;;6218351;28;20056;-77
2023/05/09 11:22:42;;;;;;;6.72;6.15;;;20.30;99.90;;;;;;6219616;28;20080;-78
2023/05/09 11:25:46;;;;;;;6.70;6.10;;;20.30;99.90;;;;;;6226228;28;20421;-78
2023/05/09 11:28:53;;;;;;;4.88;4.45;;;20.30;99.90;;;;;;6219168;28;20144;-79
2023/05/09 11:32:07;;;;;;;5.10;4.70;;;20.40;99.90;;;;;;6218395;28;20464;-78
2023/05/09 11:35:13;;;;;;;4.63;4.22;;;20.50;99.90;;;;;;6224493;28;20524;-78
2023/05/09 11:38:21;;;;;;;4.50;4.20;;;20.50;99.90;;;;;;6225166;28;20038;-78
2023/05/09 11:41:24;;;;;;;4.75;4.35;;;20.60;99.90;;;;;;6228671;28;20068;-78
2023/05/09 11:44:29;;;;;;;8.05;5.57;;;20.80;99.90;;;;;;6226465;28;20057;-78
2023/05/09 11:47:31;;;;;;;4.93;4.57;;;21.00;99.90;;;;;;6224474;28;20105;-78
2023/05/09 11:50:33;;;;;;;5.47;4.97;;;21.10;99.90;;;;;;6229886;28;20055;-79
2023/05/09 11:53:43;;;;;;;8.40;6.53;;;21.20;99.90;;;;;;6227168;28;20453;-79
2023/05/09 11:56:46;;;;;;;7.65;6.95;;;21.30;99.90;;;;;;6221411;28;20045;-78
2023/05/09 11:59:48;;;;;;;6.47;5.97;;;21.50;99.90;;;;;;6224715;28;20053;-80
2023/05/09 12:02:51;;;;;;;7.45;5.88;;;21.50;99.90;;;;;;6227618;28;20619;-79
2023/05/09 12:05:55;;;;;;;6.90;6.30;;;21.50;99.90;;;;;;6225113;28;20045;-79
2023/05/09 12:08:57;;;;;;;5.70;5.20;;;21.60;99.90;;;;;;6224778;28;20038;-78
2023/05/09 12:12:00;;;;;;;6.05;5.55;;;21.70;99.90;;;;;;6219609;28;20058;-79
2023/05/09 12:15:04;;;;;;;5.95;5.40;;;21.60;99.90;;;;;;6222072;28;20062;-78
2023/05/09 12:18:07;;;;;;;7.03;6.32;;;21.60;99.90;;;;;;6228080;28;20056;-78
2023/05/09 12:21:09;;;;;;;7.38;5.00;;;21.50;99.90;;;;;;6226621;28;20420;-79
2023/05/09 12:24:11;;;;;;;6.60;6.00;;;21.40;99.90;;;;;;6224678;28;20058;-78
2023/05/09 12:27:14;;;;;;;6.75;6.10;;;21.40;99.90;;;;;;6227439;28;20054;-80
2023/05/09 12:30:17;;;;;;;6.72;4.40;;;21.20;99.90;;;;;;6226756;28;20054;-79
2023/05/09 12:33:20;;;;;;;4.97;4.53;;;21.00;99.90;;;;;;6228259;28;20056;-78
2023/05/09 12:36:23;;;;;;;7.28;4.57;;;20.70;99.90;;;;;;6233344;28;20578;-78
2023/05/09 12:39:25;;;;;;;4.47;4.18;;;20.50;99.90;;;;;;6234733;28;20046;-78
2023/05/09 12:42:29;;;;;;;6.18;4.53;;;20.40;99.90;;;;;;6231668;28;20050;-80
2023/05/09 12:45:32;;;;;;;4.65;4.25;;;20.50;99.90;;;;;;6220701;28;20068;-78
2023/05/09 12:48:37;;;;;;;8.90;4.10;;;20.50;99.90;;;;;;6213466;28;20050;-78
2023/05/09 12:51:48;;;;;;;4.57;4.18;;;20.50;99.90;;;;;;6218939;28;20096;-78
2023/05/09 12:54:52;;;;;;;4.38;4.03;;;20.50;99.90;;;;;;6223565;28;20085;-78
2023/05/09 12:58:00;;;;;;;3.90;3.60;;;20.40;99.90;;;;;;6217819;28;20046;-78
2023/05/09 13:01:04;;;;;;;4.97;4.57;;;20.50;99.90;;;;;;6215220;28;20045;-78
2023/05/09 13:04:07;;;;;;;4.55;4.22;;;20.60;99.90;;;;;;6220870;28;20058;-78
2023/05/09 13:07:10;;;;;;;6.18;3.90;;;20.80;99.90;;;;;;6216810;28;20456;-78
2023/05/09 13:10:13;;;;;;;5.88;3.75;;;21.00;99.90;;;;;;6223433;28;20056;-78
2023/05/09 13:13:17;;;;;;;3.63;3.33;;;21.20;99.90;;;;;;6232914;28;20511;-78
2023/05/09 13:16:18;;;;;;;3.78;3.47;;;21.50;99.90;;;;;;6231257;28;20065;-79
2023/05/09 13:19:20;;;;;;;4.82;2.65;;;21.70;99.90;;;;;;6235921;28;20076;-78
2023/05/09 13:22:22;;;;;;;3.40;3.03;;;21.90;99.90;;;;;;6221561;28;21723;-78
2023/05/09 13:25:23;;;;;;;3.38;3.08;;;22.20;99.90;;;;;;6235851;28;20057;-80
2023/05/09 13:28:26;;;;;;;4.63;2.97;;;22.50;99.90;;;;;;6225734;28;20412;-78
2023/05/09 13:31:28;;;;;;;7.28;2.85;;;22.70;99.90;;;;;;6228436;28;20061;-78
2023/05/09 13:34:30;;;;;;;2.08;1.98;;;22.70;99.90;;;;;;6230093;28;20042;-78
2023/05/09 13:37:32;;;;;;;2.38;2.17;;;23.00;99.90;;;;;;6230885;28;20134;-79
2023/05/09 13:40:34;;;;;;;4.38;2.53;;;23.10;99.90;;;;;;6230517;28;20045;-79
2023/05/09 13:43:38;;;;;;;2.13;1.98;;;23.30;99.90;;;;;;6222695;28;20137;-78
2023/05/09 13:46:40;;;;;;;3.30;2.45;;;23.50;99.90;;;;;;6222025;28;20116;-79
2023/05/09 13:49:42;;;;;;;3.75;2.55;;;23.50;99.90;;;;;;6228455;28;20049;-79
2023/05/09 13:52:44;;;;;;;9.20;4.82;;;23.60;99.90;;;;;;6217508;28;20042;-79
2023/05/09 13:55:46;;;;;;;2.65;2.45;;;23.60;99.90;;;;;;6218145;28;20045;-79
2023/05/09 13:58:49;;;;;;;3.03;2.83;;;23.50;99.90;;;;;;6216325;28;20057;-79
2023/05/09 14:01:50;;;;;;;5.65;2.35;;;23.50;99.90;;;;;;6215816;28;20064;-79
2023/05/09 14:04:53;;;;;;;2.42;2.22;;;23.50;99.90;;;;;;6219707;28;20045;-80
2023/05/09 14:07:54;;;;;;;3.22;2.92;;;23.30;99.90;;;;;;6219852;28;20045;-79
2023/05/09 14:10:56;;;;;;;3.92;2.50;;;23.30;99.90;;;;;;6221497;28;20503;-79
2023/05/09 14:13:59;;;;;;;2.78;2.45;;;23.50;99.90;;;;;;6218116;28;21009;-79
2023/05/09 14:17:01;;;;;;;6.35;2.42;;;23.60;99.90;;;;;;6209669;28;20501;-79
2023/05/09 14:20:03;;;;;;;3.90;2.75;;;23.70;99.90;;;;;;6220587;28;20042;-83
2023/05/09 14:23:05;;;;;;;4.32;2.35;;;23.70;99.90;;;;;;6211191;28;20079;-78
2023/05/09 14:26:07;;;;;;;4.95;2.88;;;23.80;99.90;;;;;;6215975;28;20058;-79
2023/05/09 14:29:10;;;;;;;2.72;2.42;;;23.90;99.90;;;;;;6213092;28;20394;-78
2023/05/09 14:32:13;;;;;;;2.20;2.00;;;23.90;99.90;;;;;;6216681;28;20053;-79
2023/05/09 14:35:15;;;;;;;2.67;2.47;;;23.90;99.90;;;;;;6213542;28;20054;-79
2023/05/09 14:38:16;;;;;;;2.33;2.03;;;23.90;99.90;;;;;;6215972;28;20053;-80
2023/05/09 14:41:18;;;;;;;2.58;2.38;;;24.00;99.90;;;;;;6212925;28;20055;-80
2023/05/09 14:44:23;;;;;;;2.55;2.15;;;23.80;99.90;;;;;;6213431;28;20064;-79
2023/05/09 14:47:25;;;;;;;2.42;2.13;;;23.80;99.90;;;;;;6216155;28;20509;-79
2023/05/09 14:50:27;;;;;;;2.63;2.42;;;23.70;99.90;;;;;;6213185;28;20046;-79
2023/05/09 14:53:29;;;;;;;2.97;2.30;;;23.50;99.90;;;;;;6212685;28;20038;-79
2023/05/09 14:56:30;;;;;;;4.38;2.55;;;23.30;99.90;;;;;;6214764;28;20055;-79
2023/05/09 14:59:34;;;;;;;4.25;2.25;;;23.30;99.90;;;;;;6217390;28;20065;-80
2023/05/09 15:02:35;;;;;;;4.13;2.63;;;23.20;99.90;;;;;;6217127;28;20049;-78
2023/05/09 15:05:37;;;;;;;3.38;3.05;;;23.10;99.90;;;;;;6221779;28;20069;-79
2023/05/09 15:08:39;;;;;;;8.93;7.72;;;23.10;99.90;;;;;;6219568;28;20049;-79
2023/05/09 15:11:41;;;;;;;2.40;2.20;;;23.10;99.90;;;;;;6223647;28;20061;-79
2023/05/09 15:14:44;;;;;;;2.42;2.22;;;23.10;99.90;;;;;;6220468;28;20396;-79
2023/05/09 15:17:46;;;;;;;2.53;2.35;;;22.80;99.90;;;;;;6216086;28;20404;-79
2023/05/09 15:20:50;;;;;;;3.90;2.08;;;22.70;99.90;;;;;;6221899;28;20120;-79
2023/05/09 15:23:52;;;;;;;2.70;2.50;;;22.60;99.90;;;;;;6221298;28;20107;-79
2023/05/09 15:26:54;;;;;;;2.92;2.72;;;22.70;99.90;;;;;;6210772;28;20245;-79
2023/05/09 15:29:57;;;;;;;2.92;2.60;;;22.70;99.90;;;;;;6210600;28;20046;-79
2023/05/09 15:32:59;;;;;;;2.53;2.33;;;22.70;99.90;;;;;;6210474;28;20119;-79
2023/05/09 15:36:00;;;;;;;2.88;2.20;;;22.70;99.90;;;;;;6209928;28;20061;-78